• Join FlightAware (Why Join?)
  • Login
  • US Flag 
 
04:39AM EST


 

Airport Tracker/Info


-or-


 

Live Flight TrackerFlight Track Log ✈ BER6771 ✈ 20-Apr-2013 ✈ EDDN / NUE - EDDL / DUS

Flight Track Log - Related Links

Times and Time Zones

All times are in EDT time to prevent confusion due to time zone crossing. See the BER6771 flight status page for this flight to view local times or setup timezone preferences in your user account.

Time Position Orientation Groundspeed Altitude Reporting Facility
EDT Latitude Longitude Course Direction KTS MPH feet Rate Location/Type
01:18AM 50.3547 9.1053 305° West  Level Estimated
01:19AM 50.3947 9.0096 303° West  Level Estimated
01:20AM 50.4345 8.9137 303° West  Level Estimated
01:21AM 50.4743 8.8177 303° West  Level Estimated
01:22AM 50.5139 8.7215 303° West  Level Estimated
01:23AM 50.5536 8.6252 303° West  Level Estimated
01:24AM 50.5931 8.5287 303° West  Level Estimated
01:25AM 50.6325 8.4320 303° West  Level Estimated
01:26AM 50.6719 8.3352 303° West  Level Estimated
01:27AM 50.7112 8.2382 303° West  Level Estimated
01:28AM 50.7504 8.1410 303° West  Level Estimated
01:29AM 50.7895 8.0437 302° West  Level Estimated
01:30AM 50.8285 7.9462 302° West  Level Estimated
01:31AM 50.8675 7.8485 302° West  Level Estimated
01:32AM 50.9064 7.7507 302° West  Level Estimated
01:33AM 50.9452 7.6528 302° West  Level Estimated
01:34AM 50.9839 7.5546 302° West  Level Estimated
01:35AM 51.0225 7.4563 302° West  Level Estimated
01:36AM 51.0611 7.3579 302° West  Level Estimated
01:37AM 51.0996 7.2592 302° West  Level Estimated
01:38AM 51.1380 7.1604 302° West  Level Estimated
01:39AM 51.1763 7.0615 302° West  Level Estimated
01:40AM 51.2145 6.9624 302° West  Level Estimated
01:41AM 51.2526 6.8631 302° West  Level Estimated
01:42AM 51.2895 6.7668 301° West  Level Estimated
01:43AM 51.2895 6.7668 314° West  Level Estimated
01:44AM 51.2895 6.7668 46° Northeast  Level Estimated
01:45AM 51.2895 6.7668 314° West  Level Estimated
01:46AM 51.2895 6.7668 46° Northeast  Level Estimated
01:47AM 51.2895 6.7668 314° West  Level Estimated
01:48AM 51.2895 6.7668 46° Northeast  Level Estimated
01:49AM 51.2895 6.7668 314° West  Level Estimated
01:50AM 51.2895 6.7668 46° Northeast  Level Estimated
01:51AM 51.2895 6.7668 314° West  Level Estimated
01:52AM 51.2895 6.7668 46° Northeast  Level Estimated
01:53AM 51.2895 6.7668 314° West  Level Estimated
01:54AM 51.2895 6.7668 46° Northeast  Level Estimated
01:55AM 51.2895 6.7668 314° West  Level Estimated
01:56AM 51.2895 6.7668 46° Northeast  Level Estimated
01:57AM 51.2895 6.7668 314° West  Level Estimated
01:58AM 51.2895 6.7668 46° Northeast  Level Estimated